sensor_id;sensor_type;location;lat;lon;timestamp;temperature;humidity
20155;DHT22;10238;49.556;10.956;2023-07-02T00:00:26;18.40;99.90
20155;DHT22;10238;49.556;10.956;2023-07-02T00:03:14;18.40;99.90
20155;DHT22;10238;49.556;10.956;2023-07-02T00:06:04;18.40;99.90
20155;DHT22;10238;49.556;10.956;2023-07-02T00:08:52;18.40;99.90
20155;DHT22;10238;49.556;10.956;2023-07-02T00:11:41;18.40;99.90
20155;DHT22;10238;49.556;10.956;2023-07-02T00:14:30;18.40;99.90
20155;DHT22;10238;49.556;10.956;2023-07-02T00:17:17;18.40;99.90
20155;DHT22;10238;49.556;10.956;2023-07-02T00:20:06;18.40;99.90
20155;DHT22;10238;49.556;10.956;2023-07-02T00:23:02;18.40;99.90
20155;DHT22;10238;49.556;10.956;2023-07-02T00:25:49;18.30;99.90
20155;DHT22;10238;49.556;10.956;2023-07-02T00:28:37;18.30;99.90
20155;DHT22;10238;49.556;10.956;2023-07-02T00:31:24;18.20;99.90
20155;DHT22;10238;49.556;10.956;2023-07-02T00:34:12;18.20;99.90
20155;DHT22;10238;49.556;10.956;2023-07-02T00:37:00;18.10;99.90
20155;DHT22;10238;49.556;10.956;2023-07-02T00:39:52;18.10;99.90
20155;DHT22;10238;49.556;10.956;2023-07-02T00:42:40;18.00;99.90
20155;DHT22;10238;49.556;10.956;2023-07-02T00:45:27;18.00;99.90
20155;DHT22;10238;49.556;10.956;2023-07-02T00:48:18;18.00;99.90
20155;DHT22;10238;49.556;10.956;2023-07-02T00:51:06;18.00;99.90
20155;DHT22;10238;49.556;10.956;2023-07-02T00:53:58;18.00;99.90
20155;DHT22;10238;49.556;10.956;2023-07-02T00:56:47;18.00;99.90
20155;DHT22;10238;49.556;10.956;2023-07-02T00:59:35;18.00;99.90
20155;DHT22;10238;49.556;10.956;2023-07-02T01:02:24;18.00;99.90
20155;DHT22;10238;49.556;10.956;2023-07-02T01:05:16;18.00;99.90
20155;DHT22;10238;49.556;10.956;2023-07-02T01:08:08;18.00;99.90
20155;DHT22;10238;49.556;10.956;2023-07-02T01:10:57;18.00;99.90
20155;DHT22;10238;49.556;10.956;2023-07-02T01:13:48;18.00;99.90
20155;DHT22;10238;49.556;10.956;2023-07-02T01:16:37;18.00;99.90
20155;DHT22;10238;49.556;10.956;2023-07-02T01:19:41;18.00;99.90
20155;DHT22;10238;49.556;10.956;2023-07-02T01:22:31;18.00;99.90
20155;DHT22;10238;49.556;10.956;2023-07-02T01:25:20;18.00;99.90
20155;DHT22;10238;49.556;10.956;2023-07-02T01:28:11;18.10;99.90
20155;DHT22;10238;49.556;10.956;2023-07-02T01:31:00;18.10;99.90
20155;DHT22;10238;49.556;10.956;2023-07-02T01:33:48;18.10;99.90
20155;DHT22;10238;49.556;10.956;2023-07-02T01:36:37;18.10;99.90
20155;DHT22;10238;49.556;10.956;2023-07-02T01:39:25;18.10;99.90
20155;DHT22;10238;49.556;10.956;2023-07-02T01:42:14;18.10;99.90
20155;DHT22;10238;49.556;10.956;2023-07-02T01:45:04;18.10;99.90
20155;DHT22;10238;49.556;10.956;2023-07-02T01:47:52;18.10;99.90
20155;DHT22;10238;49.556;10.956;2023-07-02T01:50:40;18.10;99.90
20155;DHT22;10238;49.556;10.956;2023-07-02T01:53:29;18.00;99.90
20155;DHT22;10238;49.556;10.956;2023-07-02T01:56:17;18.00;99.90
20155;DHT22;10238;49.556;10.956;2023-07-02T01:59:05;18.00;99.90
20155;DHT22;10238;49.556;10.956;2023-07-02T02:01:53;18.00;99.90
20155;DHT22;10238;49.556;10.956;2023-07-02T02:04:41;18.00;99.90
20155;DHT22;10238;49.556;10.956;2023-07-02T02:07:29;18.00;99.90
20155;DHT22;10238;49.556;10.956;2023-07-02T02:10:20;17.90;99.90
20155;DHT22;10238;49.556;10.956;2023-07-02T02:13:07;17.90;99.90
20155;DHT22;10238;49.556;10.956;2023-07-02T02:15:55;17.90;99.90
20155;DHT22;10238;49.556;10.956;2023-07-02T02:18:43;17.80;99.90
20155;DHT22;10238;49.556;10.956;2023-07-02T02:21:30;17.80;99.90
20155;DHT22;10238;49.556;10.956;2023-07-02T02:24:18;17.70;99.90
20155;DHT22;10238;49.556;10.956;2023-07-02T02:27:10;17.70;99.90
20155;DHT22;10238;49.556;10.956;2023-07-02T02:29:58;17.60;99.90
20155;DHT22;10238;49.556;10.956;2023-07-02T02:32:47;17.60;99.90
20155;DHT22;10238;49.556;10.956;2023-07-02T02:35:35;17.60;99.90
20155;DHT22;10238;49.556;10.956;2023-07-02T02:38:23;17.50;99.90
20155;DHT22;10238;49.556;10.956;2023-07-02T02:41:10;17.50;99.90
20155;DHT22;10238;49.556;10.956;2023-07-02T02:44:00;17.40;99.90
20155;DHT22;10238;49.556;10.956;2023-07-02T02:46:48;17.40;99.90
20155;DHT22;10238;49.556;10.956;2023-07-02T02:49:37;17.30;99.90
20155;DHT22;10238;49.556;10.956;2023-07-02T02:52:25;17.30;99.90
20155;DHT22;10238;49.556;10.956;2023-07-02T02:55:13;17.20;99.90
20155;DHT22;10238;49.556;10.956;2023-07-02T02:58:01;17.20;99.90
20155;DHT22;10238;49.556;10.956;2023-07-02T03:00:50;17.10;99.90
20155;DHT22;10238;49.556;10.956;2023-07-02T03:03:39;17.10;99.90
20155;DHT22;10238;49.556;10.956;2023-07-02T03:06:32;17.00;99.90
20155;DHT22;10238;49.556;10.956;2023-07-02T03:09:20;17.00;99.90
20155;DHT22;10238;49.556;10.956;2023-07-02T03:12:07;17.00;99.90
20155;DHT22;10238;49.556;10.956;2023-07-02T03:14:55;17.00;99.90
20155;DHT22;10238;49.556;10.956;2023-07-02T03:17:44;17.00;99.90
20155;DHT22;10238;49.556;10.956;2023-07-02T03:20:32;17.00;99.90
20155;DHT22;10238;49.556;10.956;2023-07-02T03:23:20;17.00;99.90
20155;DHT22;10238;49.556;10.956;2023-07-02T03:26:08;17.00;99.90
20155;DHT22;10238;49.556;10.956;2023-07-02T03:28:55;17.00;99.90
20155;DHT22;10238;49.556;10.956;2023-07-02T03:31:43;17.00;99.90
20155;DHT22;10238;49.556;10.956;2023-07-02T03:34:32;16.90;99.90
20155;DHT22;10238;49.556;10.956;2023-07-02T03:37:22;16.90;99.90
20155;DHT22;10238;49.556;10.956;2023-07-02T03:40:10;16.90;99.90
20155;DHT22;10238;49.556;10.956;2023-07-02T03:42:58;16.90;99.90
20155;DHT22;10238;49.556;10.956;2023-07-02T03:45:46;16.90;99.90
20155;DHT22;10238;49.556;10.956;2023-07-02T03:48:34;16.90;99.90
20155;DHT22;10238;49.556;10.956;2023-07-02T03:51:23;16.90;99.90
20155;DHT22;10238;49.556;10.956;2023-07-02T03:54:11;16.90;99.90
20155;DHT22;10238;49.556;10.956;2023-07-02T03:56:59;16.90;99.90
20155;DHT22;10238;49.556;10.956;2023-07-02T03:59:46;17.00;99.90
20155;DHT22;10238;49.556;10.956;2023-07-02T04:02:34;16.90;99.90
20155;DHT22;10238;49.556;10.956;2023-07-02T04:05:23;16.90;99.90
20155;DHT22;10238;49.556;10.956;2023-07-02T04:08:11;17.00;99.90
20155;DHT22;10238;49.556;10.956;2023-07-02T04:10:59;17.00;99.90
20155;DHT22;10238;49.556;10.956;2023-07-02T04:13:47;17.00;99.90
20155;DHT22;10238;49.556;10.956;2023-07-02T04:16:35;17.00;99.90
20155;DHT22;10238;49.556;10.956;2023-07-02T04:19:23;17.00;99.90
20155;DHT22;10238;49.556;10.956;2023-07-02T04:22:10;17.00;99.90
20155;DHT22;10238;49.556;10.956;2023-07-02T04:25:00;17.00;99.90
20155;DHT22;10238;49.556;10.956;2023-07-02T04:28:08;17.00;99.90
20155;DHT22;10238;49.556;10.956;2023-07-02T04:30:56;17.00;99.90
20155;DHT22;10238;49.556;10.956;2023-07-02T04:33:43;17.10;99.90
20155;DHT22;10238;49.556;10.956;2023-07-02T04:36:30;17.10;99.90
20155;DHT22;10238;49.556;10.956;2023-07-02T04:39:18;17.10;99.90
20155;DHT22;10238;49.556;10.956;2023-07-02T04:42:07;17.10;99.90
20155;DHT22;10238;49.556;10.956;2023-07-02T04:44:56;17.10;99.90
20155;DHT22;10238;49.556;10.956;2023-07-02T04:47:48;17.20;99.90
20155;DHT22;10238;49.556;10.956;2023-07-02T04:50:35;17.20;99.90
20155;DHT22;10238;49.556;10.956;2023-07-02T04:53:23;17.20;99.90
20155;DHT22;10238;49.556;10.956;2023-07-02T04:56:11;17.20;99.90
20155;DHT22;10238;49.556;10.956;2023-07-02T04:59:01;17.30;99.90
20155;DHT22;10238;49.556;10.956;2023-07-02T05:01:48;17.30;99.90
20155;DHT22;10238;49.556;10.956;2023-07-02T05:04:37;17.30;99.90
20155;DHT22;10238;49.556;10.956;2023-07-02T05:07:27;17.30;99.90
20155;DHT22;10238;49.556;10.956;2023-07-02T05:10:15;17.40;99.90
20155;DHT22;10238;49.556;10.956;2023-07-02T05:13:03;17.40;99.90
20155;DHT22;10238;49.556;10.956;2023-07-02T05:15:52;17.50;99.90
20155;DHT22;10238;49.556;10.956;2023-07-02T05:18:40;17.60;99.90
20155;DHT22;10238;49.556;10.956;2023-07-02T05:21:28;17.70;99.90
20155;DHT22;10238;49.556;10.956;2023-07-02T05:24:23;17.70;99.90
20155;DHT22;10238;49.556;10.956;2023-07-02T05:27:11;17.70;99.90
20155;DHT22;10238;49.556;10.956;2023-07-02T05:30:02;17.80;99.90
20155;DHT22;10238;49.556;10.956;2023-07-02T05:32:51;17.80;99.90
20155;DHT22;10238;49.556;10.956;2023-07-02T05:35:39;17.90;99.90
20155;DHT22;10238;49.556;10.956;2023-07-02T05:38:26;18.00;99.90
20155;DHT22;10238;49.556;10.956;2023-07-02T05:41:18;18.10;99.90
20155;DHT22;10238;49.556;10.956;2023-07-02T05:44:05;18.10;99.90
20155;DHT22;10238;49.556;10.956;2023-07-02T05:46:53;18.20;99.90
20155;DHT22;10238;49.556;10.956;2023-07-02T05:49:43;18.30;99.90
20155;DHT22;10238;49.556;10.956;2023-07-02T05:52:30;18.30;99.90
20155;DHT22;10238;49.556;10.956;2023-07-02T05:55:18;18.40;99.90
20155;DHT22;10238;49.556;10.956;2023-07-02T05:58:06;18.50;99.90
20155;DHT22;10238;49.556;10.956;2023-07-02T06:00:54;18.50;99.90
20155;DHT22;10238;49.556;10.956;2023-07-02T06:03:42;18.60;99.90
20155;DHT22;10238;49.556;10.956;2023-07-02T06:06:33;18.60;99.90
20155;DHT22;10238;49.556;10.956;2023-07-02T06:09:21;18.50;99.90
20155;DHT22;10238;49.556;10.956;2023-07-02T06:12:08;18.60;99.90
20155;DHT22;10238;49.556;10.956;2023-07-02T06:14:57;18.70;99.90
20155;DHT22;10238;49.556;10.956;2023-07-02T06:17:44;18.70;99.90
20155;DHT22;10238;49.556;10.956;2023-07-02T06:20:32;18.70;99.90
20155;DHT22;10238;49.556;10.956;2023-07-02T06:23:21;18.70;99.90
20155;DHT22;10238;49.556;10.956;2023-07-02T06:26:09;18.80;99.90
20155;DHT22;10238;49.556;10.956;2023-07-02T06:28:57;18.90;99.90
20155;DHT22;10238;49.556;10.956;2023-07-02T06:31:44;19.00;99.90
20155;DHT22;10238;49.556;10.956;2023-07-02T06:34:32;19.20;99.90
20155;DHT22;10238;49.556;10.956;2023-07-02T06:37:20;19.30;99.90
20155;DHT22;10238;49.556;10.956;2023-07-02T06:40:09;19.30;99.90
20155;DHT22;10238;49.556;10.956;2023-07-02T06:42:58;19.20;99.90
20155;DHT22;10238;49.556;10.956;2023-07-02T06:45:46;19.20;99.90
20155;DHT22;10238;49.556;10.956;2023-07-02T06:48:34;19.50;99.90
20155;DHT22;10238;49.556;10.956;2023-07-02T06:51:22;19.60;99.90
20155;DHT22;10238;49.556;10.956;2023-07-02T06:54:11;19.80;99.90
20155;DHT22;10238;49.556;10.956;2023-07-02T06:57:01;19.90;99.90
20155;DHT22;10238;49.556;10.956;2023-07-02T06:59:49;20.20;99.90
20155;DHT22;10238;49.556;10.956;2023-07-02T07:02:37;20.20;99.90
20155;DHT22;10238;49.556;10.956;2023-07-02T07:05:25;20.40;99.90
20155;DHT22;10238;49.556;10.956;2023-07-02T07:08:15;20.40;99.90
20155;DHT22;10238;49.556;10.956;2023-07-02T07:11:03;20.50;99.90
20155;DHT22;10238;49.556;10.956;2023-07-02T07:13:53;21.00;99.90
20155;DHT22;10238;49.556;10.956;2023-07-02T07:53:11;22.10;99.90
20155;DHT22;10238;49.556;10.956;2023-07-02T07:56:00;22.20;99.90
20155;DHT22;10238;49.556;10.956;2023-07-02T07:58:52;22.10;99.90
20155;DHT22;10238;49.556;10.956;2023-07-02T08:01:39;22.10;99.90
20155;DHT22;10238;49.556;10.956;2023-07-02T08:04:29;21.90;99.90
20155;DHT22;10238;49.556;10.956;2023-07-02T08:07:17;21.80;99.90
20155;DHT22;10238;49.556;10.956;2023-07-02T08:10:05;21.80;99.90
20155;DHT22;10238;49.556;10.956;2023-07-02T08:12:54;22.00;99.90
20155;DHT22;10238;49.556;10.956;2023-07-02T08:15:41;22.00;99.90
20155;DHT22;10238;49.556;10.956;2023-07-02T08:18:30;22.00;99.90
20155;DHT22;10238;49.556;10.956;2023-07-02T08:21:20;21.90;99.90
20155;DHT22;10238;49.556;10.956;2023-07-02T08:24:07;22.20;99.90
20155;DHT22;10238;49.556;10.956;2023-07-02T08:26:55;22.70;99.90
20155;DHT22;10238;49.556;10.956;2023-07-02T08:29:43;22.60;99.90
20155;DHT22;10238;49.556;10.956;2023-07-02T08:32:33;22.40;99.90
20155;DHT22;10238;49.556;10.956;2023-07-02T08:35:21;22.20;99.90
20155;DHT22;10238;49.556;10.956;2023-07-02T08:38:13;22.30;99.90
20155;DHT22;10238;49.556;10.956;2023-07-02T08:41:01;22.40;99.90
20155;DHT22;10238;49.556;10.956;2023-07-02T08:43:49;22.60;99.90
20155;DHT22;10238;49.556;10.956;2023-07-02T08:46:37;22.60;99.90
20155;DHT22;10238;49.556;10.956;2023-07-02T08:49:26;22.60;99.90
20155;DHT22;10238;49.556;10.956;2023-07-02T08:52:14;23.10;99.50
20155;DHT22;10238;49.556;10.956;2023-07-02T08:55:05;23.50;99.10
20155;DHT22;10238;49.556;10.956;2023-07-02T08:57:54;23.20;98.60
20155;DHT22;10238;49.556;10.956;2023-07-02T09:01:05;23.10;98.20
20155;DHT22;10238;49.556;10.956;2023-07-02T15:11:47;28.80;71.80
20155;DHT22;10238;49.556;10.956;2023-07-02T15:14:34;28.70;70.40
20155;DHT22;10238;49.556;10.956;2023-07-02T15:17:31;28.40;71.60
20155;DHT22;10238;49.556;10.956;2023-07-02T15:20:20;28.30;73.10
20155;DHT22;10238;49.556;10.956;2023-07-02T15:23:08;28.30;72.60
20155;DHT22;10238;49.556;10.956;2023-07-02T15:26:01;28.70;72.60
20155;DHT22;10238;49.556;10.956;2023-07-02T15:28:50;28.70;72.00
20155;DHT22;10238;49.556;10.956;2023-07-02T15:31:38;29.20;72.90
20155;DHT22;10238;49.556;10.956;2023-07-02T15:34:27;29.40;69.50
20155;DHT22;10238;49.556;10.956;2023-07-02T15:37:15;29.70;69.50
20155;DHT22;10238;49.556;10.956;2023-07-02T15:40:11;30.00;70.40
20155;DHT22;10238;49.556;10.956;2023-07-02T17:02:24;30.10;66.20
20155;DHT22;10238;49.556;10.956;2023-07-02T17:05:13;30.10;66.20
20155;DHT22;10238;49.556;10.956;2023-07-02T17:08:02;30.00;66.40
20155;DHT22;10238;49.556;10.956;2023-07-02T17:10:50;30.00;66.80
20155;DHT22;10238;49.556;10.956;2023-07-02T17:13:38;29.90;66.60
20155;DHT22;10238;49.556;10.956;2023-07-02T17:16:26;29.70;66.70
20155;DHT22;10238;49.556;10.956;2023-07-02T17:19:14;29.60;66.70
20155;DHT22;10238;49.556;10.956;2023-07-02T17:22:05;29.00;67.50
20155;DHT22;10238;49.556;10.956;2023-07-02T17:24:57;28.60;67.70
20155;DHT22;10238;49.556;10.956;2023-07-02T17:27:49;28.30;69.40
20155;DHT22;10238;49.556;10.956;2023-07-02T17:30:37;28.20;69.40
20155;DHT22;10238;49.556;10.956;2023-07-02T17:33:28;28.10;69.10
20155;DHT22;10238;49.556;10.956;2023-07-02T17:36:16;27.80;69.80
20155;DHT22;10238;49.556;10.956;2023-07-02T17:39:04;27.50;70.30
20155;DHT22;10238;49.556;10.956;2023-07-02T17:41:57;27.20;70.60
20155;DHT22;10238;49.556;10.956;2023-07-02T17:44:47;26.90;70.10
20155;DHT22;10238;49.556;10.956;2023-07-02T17:47:37;26.70;71.30
20155;DHT22;10238;49.556;10.956;2023-07-02T17:50:25;26.50;71.40
20155;DHT22;10238;49.556;10.956;2023-07-02T17:53:13;26.30;71.80
20155;DHT22;10238;49.556;10.956;2023-07-02T17:56:02;26.10;72.10
20155;DHT22;10238;49.556;10.956;2023-07-02T17:58:53;25.80;72.30
20155;DHT22;10238;49.556;10.956;2023-07-02T18:01:43;25.70;73.00
20155;DHT22;10238;49.556;10.956;2023-07-02T18:04:34;25.60;73.10
20155;DHT22;10238;49.556;10.956;2023-07-02T18:07:27;25.40;73.70
20155;DHT22;10238;49.556;10.956;2023-07-02T18:10:15;25.20;73.70
20155;DHT22;10238;49.556;10.956;2023-07-02T18:13:04;25.00;74.60
20155;DHT22;10238;49.556;10.956;2023-07-02T18:15:54;24.80;75.00
20155;DHT22;10238;49.556;10.956;2023-07-02T18:18:42;24.70;75.60
20155;DHT22;10238;49.556;10.956;2023-07-02T18:21:30;24.50;75.60
20155;DHT22;10238;49.556;10.956;2023-07-02T18:24:18;24.40;76.60
20155;DHT22;10238;49.556;10.956;2023-07-02T18:27:07;24.30;76.70
20155;DHT22;10238;49.556;10.956;2023-07-02T18:29:56;24.10;77.80
20155;DHT22;10238;49.556;10.956;2023-07-02T18:32:45;23.90;79.10
20155;DHT22;10238;49.556;10.956;2023-07-02T18:35:34;23.80;79.70
20155;DHT22;10238;49.556;10.956;2023-07-02T18:38:25;23.60;80.70
20155;DHT22;10238;49.556;10.956;2023-07-02T18:41:14;23.50;80.50
20155;DHT22;10238;49.556;10.956;2023-07-02T18:44:02;23.40;81.20
20155;DHT22;10238;49.556;10.956;2023-07-02T18:46:56;23.20;86.00
20155;DHT22;10238;49.556;10.956;2023-07-02T18:49:48;23.10;81.90
20155;DHT22;10238;49.556;10.956;2023-07-02T18:52:36;23.00;81.80
20155;DHT22;10238;49.556;10.956;2023-07-02T18:55:24;22.90;89.80
20155;DHT22;10238;49.556;10.956;2023-07-02T18:58:12;22.70;82.60
20155;DHT22;10238;49.556;10.956;2023-07-02T19:01:06;22.60;82.80
20155;DHT22;10238;49.556;10.956;2023-07-02T19:03:55;22.50;84.10
20155;DHT22;10238;49.556;10.956;2023-07-02T19:06:45;22.40;85.10
20155;DHT22;10238;49.556;10.956;2023-07-02T19:09:34;22.20;85.80
20155;DHT22;10238;49.556;10.956;2023-07-02T19:12:23;22.10;85.40
20155;DHT22;10238;49.556;10.956;2023-07-02T19:15:12;22.00;85.60
20155;DHT22;10238;49.556;10.956;2023-07-02T19:18:00;21.80;86.70
20155;DHT22;10238;49.556;10.956;2023-07-02T19:20:48;21.70;87.40
20155;DHT22;10238;49.556;10.956;2023-07-02T19:23:38;21.60;87.20
20155;DHT22;10238;49.556;10.956;2023-07-02T19:26:26;21.40;87.30
20155;DHT22;10238;49.556;10.956;2023-07-02T19:29:15;21.30;87.80
20155;DHT22;10238;49.556;10.956;2023-07-02T19:32:04;21.10;89.70
20155;DHT22;10238;49.556;10.956;2023-07-02T19:34:54;21.00;90.20
20155;DHT22;10238;49.556;10.956;2023-07-02T19:37:43;20.80;89.10
20155;DHT22;10238;49.556;10.956;2023-07-02T19:40:32;20.70;89.50
20155;DHT22;10238;49.556;10.956;2023-07-02T19:43:19;20.50;90.40
20155;DHT22;10238;49.556;10.956;2023-07-02T19:46:07;20.40;90.50
20155;DHT22;10238;49.556;10.956;2023-07-02T19:48:56;20.30;91.00
20155;DHT22;10238;49.556;10.956;2023-07-02T19:51:44;20.20;91.30
20155;DHT22;10238;49.556;10.956;2023-07-02T19:54:33;20.10;91.60
20155;DHT22;10238;49.556;10.956;2023-07-02T19:57:22;20.00;91.80
20155;DHT22;10238;49.556;10.956;2023-07-02T20:00:11;19.90;92.30
20155;DHT22;10238;49.556;10.956;2023-07-02T20:02:59;19.80;92.30
20155;DHT22;10238;49.556;10.956;2023-07-02T20:05:47;19.70;92.60
20155;DHT22;10238;49.556;10.956;2023-07-02T20:08:36;19.50;92.40
20155;DHT22;10238;49.556;10.956;2023-07-02T20:11:23;19.40;92.50
20155;DHT22;10238;49.556;10.956;2023-07-02T20:14:13;19.40;92.50
20155;DHT22;10238;49.556;10.956;2023-07-02T20:17:02;19.20;93.40
20155;DHT22;10238;49.556;10.956;2023-07-02T20:19:52;19.10;93.40
20155;DHT22;10238;49.556;10.956;2023-07-02T20:22:40;19.00;93.40
20155;DHT22;10238;49.556;10.956;2023-07-02T20:25:29;18.90;93.60
20155;DHT22;10238;49.556;10.956;2023-07-02T20:28:35;18.70;94.00
20155;DHT22;10238;49.556;10.956;2023-07-02T20:31:24;18.70;94.40
20155;DHT22;10238;49.556;10.956;2023-07-02T20:34:15;18.60;94.40
20155;DHT22;10238;49.556;10.956;2023-07-02T20:37:03;18.60;94.20
20155;DHT22;10238;49.556;10.956;2023-07-02T20:39:51;18.50;94.60
20155;DHT22;10238;49.556;10.956;2023-07-02T20:42:39;18.40;94.90
20155;DHT22;10238;49.556;10.956;2023-07-02T20:45:27;18.30;95.20
20155;DHT22;10238;49.556;10.956;2023-07-02T20:48:18;18.20;95.30
20155;DHT22;10238;49.556;10.956;2023-07-02T20:51:06;18.10;95.60
20155;DHT22;10238;49.556;10.956;2023-07-02T20:53:53;18.10;95.70
20155;DHT22;10238;49.556;10.956;2023-07-02T20:56:41;18.00;95.70
20155;DHT22;10238;49.556;10.956;2023-07-02T20:59:29;17.90;95.90
20155;DHT22;10238;49.556;10.956;2023-07-02T21:02:17;17.90;96.10
20155;DHT22;10238;49.556;10.956;2023-07-02T21:05:08;17.80;96.70
20155;DHT22;10238;49.556;10.956;2023-07-02T21:07:59;17.70;96.60
20155;DHT22;10238;49.556;10.956;2023-07-02T21:10:47;17.60;97.10
20155;DHT22;10238;49.556;10.956;2023-07-02T21:13:35;17.50;97.10
20155;DHT22;10238;49.556;10.956;2023-07-02T21:19:11;17.30;97.50
20155;DHT22;10238;49.556;10.956;2023-07-02T21:22:00;17.20;97.90
20155;DHT22;10238;49.556;10.956;2023-07-02T21:24:48;17.10;98.50
20155;DHT22;10238;49.556;10.956;2023-07-02T21:27:36;17.10;99.00
20155;DHT22;10238;49.556;10.956;2023-07-02T21:30:24;17.00;98.50
20155;DHT22;10238;49.556;10.956;2023-07-02T21:36:00;17.00;98.60
20155;DHT22;10238;49.556;10.956;2023-07-02T21:38:54;17.00;99.20
20155;DHT22;10238;49.556;10.956;2023-07-02T21:41:42;16.90;99.50
20155;DHT22;10238;49.556;10.956;2023-07-02T21:44:30;16.90;99.40
20155;DHT22;10238;49.556;10.956;2023-07-02T21:47:18;16.90;99.80
20155;DHT22;10238;49.556;10.956;2023-07-02T21:50:07;16.80;99.60
20155;DHT22;10238;49.556;10.956;2023-07-02T21:52:55;16.70;99.70
20155;DHT22;10238;49.556;10.956;2023-07-02T21:55:48;16.70;99.90
20155;DHT22;10238;49.556;10.956;2023-07-02T21:58:36;16.70;99.90
20155;DHT22;10238;49.556;10.956;2023-07-02T22:01:25;16.60;99.90
20155;DHT22;10238;49.556;10.956;2023-07-02T22:04:13;16.60;99.90
20155;DHT22;10238;49.556;10.956;2023-07-02T22:07:01;16.50;99.90
20155;DHT22;10238;49.556;10.956;2023-07-02T22:09:48;16.40;99.90
20155;DHT22;10238;49.556;10.956;2023-07-02T22:12:38;16.40;99.90
20155;DHT22;10238;49.556;10.956;2023-07-02T22:15:26;16.30;99.90
20155;DHT22;10238;49.556;10.956;2023-07-02T22:18:15;16.30;99.90
20155;DHT22;10238;49.556;10.956;2023-07-02T22:21:04;16.20;99.90
20155;DHT22;10238;49.556;10.956;2023-07-02T22:23:53;16.20;99.90
20155;DHT22;10238;49.556;10.956;2023-07-02T22:26:40;16.20;99.90
20155;DHT22;10238;49.556;10.956;2023-07-02T22:29:29;16.10;99.90
20155;DHT22;10238;49.556;10.956;2023-07-02T22:32:17;16.00;99.90
20155;DHT22;10238;49.556;10.956;2023-07-02T22:35:08;15.90;99.90
20155;DHT22;10238;49.556;10.956;2023-07-02T22:37:56;15.80;99.90
20155;DHT22;10238;49.556;10.956;2023-07-02T22:40:44;15.80;99.90
20155;DHT22;10238;49.556;10.956;2023-07-02T22:43:34;15.70;99.90
20155;DHT22;10238;49.556;10.956;2023-07-02T22:46:23;15.50;99.90
20155;DHT22;10238;49.556;10.956;2023-07-02T22:49:11;15.50;99.90
20155;DHT22;10238;49.556;10.956;2023-07-02T22:51:59;15.40;99.90
20155;DHT22;10238;49.556;10.956;2023-07-02T22:54:52;15.40;99.90
20155;DHT22;10238;49.556;10.956;2023-07-02T22:57:40;15.40;99.90
20155;DHT22;10238;49.556;10.956;2023-07-02T23:00:29;15.30;99.90
20155;DHT22;10238;49.556;10.956;2023-07-02T23:03:18;15.20;99.90
20155;DHT22;10238;49.556;10.956;2023-07-02T23:06:06;15.20;99.90
20155;DHT22;10238;49.556;10.956;2023-07-02T23:08:54;15.10;99.90
20155;DHT22;10238;49.556;10.956;2023-07-02T23:11:41;15.10;99.90
20155;DHT22;10238;49.556;10.956;2023-07-02T23:14:29;15.00;99.90
20155;DHT22;10238;49.556;10.956;2023-07-02T23:17:16;14.90;99.90
20155;DHT22;10238;49.556;10.956;2023-07-02T23:20:12;14.90;99.90
20155;DHT22;10238;49.556;10.956;2023-07-02T23:23:00;14.80;99.90
20155;DHT22;10238;49.556;10.956;2023-07-02T23:25:49;14.80;99.90
20155;DHT22;10238;49.556;10.956;2023-07-02T23:31:27;14.60;99.90
20155;DHT22;10238;49.556;10.956;2023-07-02T23:34:16;14.60;99.90
20155;DHT22;10238;49.556;10.956;2023-07-02T23:37:05;14.60;99.90
20155;DHT22;10238;49.556;10.956;2023-07-02T23:39:59;14.50;99.90
20155;DHT22;10238;49.556;10.956;2023-07-02T23:42:47;14.50;99.90
20155;DHT22;10238;49.556;10.956;2023-07-02T23:45:35;14.40;99.90
20155;DHT22;10238;49.556;10.956;2023-07-02T23:48:23;14.40;99.90
20155;DHT22;10238;49.556;10.956;2023-07-02T23:51:11;14.40;99.90
20155;DHT22;10238;49.556;10.956;2023-07-02T23:54:00;14.40;99.90
20155;DHT22;10238;49.556;10.956;2023-07-02T23:56:48;14.40;99.90
20155;DHT22;10238;49.556;10.956;2023-07-02T23:59:36;14.30;99.90
